createdAt,value
2022-10-25T00:00:42.648Z,8.30
2022-10-25T00:03:12.881Z,8.80
2022-10-25T00:10:36.986Z,9.30
2022-10-25T00:13:04.761Z,7.50
2022-10-25T00:18:00.023Z,8.60
2022-10-25T00:20:30.575Z,10.10
2022-10-25T00:32:52.961Z,7.40
2022-10-25T00:37:49.108Z,7.40
2022-10-25T00:40:19.396Z,8.60
2022-10-25T00:45:22.475Z,8.60
2022-10-25T00:53:03.155Z,8.70
2022-10-25T00:58:10.764Z,9.50
2022-10-25T01:00:38.423Z,8.50
2022-10-25T01:03:07.122Z,8.60
2022-10-25T01:05:35.306Z,10.00
2022-10-25T01:10:31.258Z,8.40
2022-10-25T01:13:00.807Z,7.20
2022-10-25T01:15:39.443Z,9.90
2022-10-25T01:18:32.378Z,9.60
2022-10-25T01:21:32.541Z,8.60
2022-10-25T01:24:28.450Z,8.60
2022-10-25T01:29:54.521Z,8.60
2022-10-25T01:32:25.425Z,8.40
2022-10-25T01:35:32.775Z,8.60
2022-10-25T01:40:53.223Z,7.80
2022-10-25T01:43:29.522Z,8.60
2022-10-25T01:46:05.684Z,8.60
2022-10-25T01:48:39.736Z,8.60
2022-10-25T01:51:12.798Z,8.60
2022-10-25T01:53:51.897Z,7.20
2022-10-25T01:56:25.199Z,10.00
2022-10-25T01:59:12.822Z,7.70
2022-10-25T02:02:05.371Z,8.00
2022-10-25T02:04:37.903Z,8.20
2022-10-25T02:07:08.467Z,8.10
2022-10-25T02:09:57.140Z,8.70
2022-10-25T02:12:32.322Z,8.70
2022-10-25T02:15:10.676Z,8.80
2022-10-25T02:17:54.243Z,7.50
2022-10-25T02:20:25.774Z,10.10
2022-10-25T02:22:54.922Z,8.60
2022-10-25T02:25:23.000Z,7.30
2022-10-25T02:27:53.035Z,8.50
2022-10-25T02:30:20.914Z,8.50
2022-10-25T02:32:52.501Z,7.20
2022-10-25T02:35:20.265Z,8.80
2022-10-25T02:52:35.106Z,8.40
2022-10-25T03:07:32.055Z,7.10
2022-10-25T03:14:54.403Z,9.70
2022-10-25T03:22:16.965Z,9.40
2022-10-25T03:29:39.667Z,7.10
2022-10-25T03:39:30.684Z,7.00
2022-10-25T03:42:00.975Z,8.10
2022-10-25T03:54:29.273Z,8.50
2022-10-25T03:56:59.347Z,7.20
2022-10-25T04:11:47.746Z,7.10
2022-10-25T04:16:45.300Z,8.80
2022-10-25T04:24:10.828Z,8.60
2022-10-25T04:41:27.731Z,7.20
2022-10-25T05:01:13.241Z,7.30
2022-10-25T05:08:40.797Z,8.80
2022-10-25T05:11:09.755Z,8.80
2022-10-25T05:13:38.646Z,8.50
2022-10-25T05:18:35.439Z,8.80
2022-10-25T05:21:05.515Z,8.80
2022-10-25T05:23:35.909Z,8.80
2022-10-25T05:41:01.106Z,8.90
2022-10-25T05:46:12.423Z,9.00
2022-10-25T05:54:03.111Z,9.00
2022-10-25T05:56:34.664Z,9.00
2022-10-25T05:59:12.193Z,9.00
2022-10-25T06:01:45.581Z,9.10
2022-10-25T06:06:42.100Z,9.10
2022-10-25T06:09:12.844Z,9.10
2022-10-25T06:14:10.259Z,9.10
2022-10-25T06:24:04.618Z,9.20
2022-10-25T06:34:02.963Z,9.00
2022-10-25T06:46:57.808Z,9.40
2022-10-25T06:56:53.315Z,9.60
2022-10-25T07:24:11.277Z,10.00
2022-10-25T07:31:45.872Z,9.00
2022-10-25T07:34:17.398Z,9.80
2022-10-25T07:44:16.769Z,9.80
2022-10-25T07:46:51.370Z,8.50
2022-10-25T07:51:46.628Z,9.70
2022-10-25T07:59:09.554Z,10.00
2022-10-25T08:24:05.349Z,10.10
2022-10-25T08:26:37.009Z,9.80
2022-10-25T08:29:05.361Z,9.80
2022-10-25T08:31:32.996Z,9.80
2022-10-25T08:36:28.856Z,11.40
2022-10-25T08:41:41.682Z,8.20
2022-10-25T08:44:17.551Z,10.30
2022-10-25T08:47:07.484Z,9.80
2022-10-25T08:49:49.990Z,9.80
2022-10-25T08:52:24.303Z,9.80
2022-10-25T08:54:52.005Z,8.60
2022-10-25T08:57:28.643Z,8.20
2022-10-25T09:00:12.472Z,10.10
2022-10-25T09:03:00.678Z,9.80
2022-10-25T09:05:38.301Z,9.80
2022-10-25T09:08:27.304Z,9.80
2022-10-25T09:11:20.744Z,9.70
2022-10-25T09:13:57.020Z,9.70
2022-10-25T09:16:27.273Z,9.70
2022-10-25T09:22:03.950Z,9.40
2022-10-25T09:27:20.253Z,9.90
2022-10-25T09:29:56.331Z,9.60
2022-10-25T09:32:36.613Z,9.70
2022-10-25T09:35:06.184Z,9.60
2022-10-25T09:37:42.158Z,9.60
2022-10-25T09:40:21.485Z,9.50
2022-10-25T09:45:42.973Z,8.70
2022-10-25T09:48:25.475Z,9.40
2022-10-25T09:51:25.290Z,9.60
2022-10-25T09:53:56.948Z,9.60
2022-10-25T09:58:56.965Z,8.10
2022-10-25T10:01:28.822Z,9.70
2022-10-25T10:04:24.786Z,10.90
2022-10-25T10:06:57.587Z,11.10
2022-10-25T10:14:34.509Z,9.70
2022-10-25T10:19:30.691Z,9.70
2022-10-25T10:22:01.156Z,10.00
2022-10-25T10:24:37.679Z,9.70
2022-10-25T10:27:10.956Z,9.70
2022-10-25T10:30:00.147Z,9.70
2022-10-25T10:34:59.044Z,9.20
2022-10-25T10:37:31.485Z,8.50
2022-10-25T10:42:37.913Z,9.80
2022-10-25T10:47:57.148Z,9.80
2022-10-25T10:50:32.773Z,9.80
2022-10-25T10:53:06.329Z,9.90
2022-10-25T10:55:44.383Z,9.90
2022-10-25T10:58:27.161Z,9.00
2022-10-25T11:01:17.202Z,9.90
2022-10-25T11:03:59.208Z,9.90
2022-10-25T11:06:40.862Z,10.00
2022-10-25T11:09:12.537Z,10.00
2022-10-25T11:11:43.355Z,10.30
2022-10-25T11:16:59.563Z,10.20
2022-10-25T11:19:54.767Z,10.20
2022-10-25T11:23:05.341Z,11.80
2022-10-25T11:25:47.670Z,10.30
2022-10-25T11:28:38.370Z,10.30
2022-10-25T11:31:20.917Z,10.40
2022-10-25T11:34:10.187Z,9.80
2022-10-25T11:36:58.940Z,10.10
2022-10-25T11:39:45.973Z,10.40
2022-10-25T11:42:44.544Z,10.50
2022-10-25T11:45:35.580Z,10.70
2022-10-25T11:48:05.795Z,10.70
2022-10-25T11:50:46.328Z,11.40
2022-10-25T11:53:42.364Z,10.70
2022-10-25T11:56:42.999Z,9.20
2022-10-25T12:02:37.823Z,10.60
2022-10-25T12:05:42.073Z,10.70
2022-10-25T12:08:40.201Z,8.80
2022-10-25T12:11:30.376Z,10.70
2022-10-25T12:16:29.120Z,12.20
2022-10-25T12:19:06.036Z,10.70
2022-10-25T12:21:51.885Z,10.70
2022-10-25T12:24:30.108Z,10.70
2022-10-25T12:29:36.271Z,10.80
2022-10-25T12:32:11.986Z,11.20
2022-10-25T12:34:46.047Z,10.70
2022-10-25T12:37:39.463Z,10.70
2022-10-25T12:42:49.534Z,11.10
2022-10-25T12:45:42.578Z,12.20
2022-10-25T12:48:39.124Z,10.70
2022-10-25T12:51:33.234Z,10.70
2022-10-25T12:54:19.603Z,11.90
2022-10-25T12:57:15.004Z,10.80
2022-10-25T13:02:38.333Z,10.70
2022-10-25T13:08:09.446Z,10.70
2022-10-25T13:10:46.737Z,10.70
2022-10-25T13:13:27.518Z,10.50
2022-10-25T13:15:59.066Z,10.70
2022-10-25T13:18:42.853Z,10.70
2022-10-25T13:21:37.485Z,10.70
2022-10-25T13:26:53.608Z,10.70
2022-10-25T13:29:48.935Z,10.50
2022-10-25T13:32:21.132Z,10.60
2022-10-25T13:34:51.500Z,9.20
2022-10-25T13:37:34.301Z,12.40
2022-10-25T13:40:05.815Z,11.80
2022-10-25T13:42:39.356Z,10.70
2022-10-25T13:45:18.623Z,10.70
2022-10-25T13:47:55.433Z,10.50
2022-10-25T13:50:35.970Z,10.70
2022-10-25T13:53:14.984Z,11.20
2022-10-25T13:55:48.279Z,11.50
2022-10-25T13:58:33.927Z,10.70
2022-10-25T14:01:17.926Z,11.00
2022-10-25T14:04:06.211Z,10.70
2022-10-25T14:06:35.924Z,10.70
2022-10-25T14:09:33.591Z,10.70
2022-10-25T14:12:07.858Z,10.80
2022-10-25T14:15:03.572Z,10.70
2022-10-25T14:17:43.136Z,10.70
2022-10-25T14:22:46.978Z,10.30
2022-10-25T14:27:48.747Z,10.80
2022-10-25T14:30:23.499Z,10.80
2022-10-25T14:35:53.879Z,10.80
2022-10-25T14:38:25.491Z,10.80
2022-10-25T14:43:22.903Z,10.70
2022-10-25T14:46:12.341Z,10.80
2022-10-25T14:48:39.769Z,9.00
2022-10-25T14:51:35.488Z,10.70
2022-10-25T14:54:05.726Z,10.70
2022-10-25T14:56:40.531Z,10.70
2022-10-25T14:59:42.505Z,11.20
2022-10-25T15:02:28.542Z,10.70
2022-10-25T15:04:59.957Z,10.70
2022-10-25T15:07:43.733Z,10.80
2022-10-25T15:10:33.296Z,10.70
2022-10-25T15:13:14.448Z,10.70
2022-10-25T15:15:45.036Z,10.70
2022-10-25T15:18:27.518Z,10.70
2022-10-25T15:21:13.602Z,10.70
2022-10-25T15:23:42.926Z,10.70
2022-10-25T15:26:29.284Z,10.70
2022-10-25T15:29:00.156Z,10.70
2022-10-25T15:31:30.521Z,10.70
2022-10-25T15:34:02.998Z,10.80
2022-10-25T15:36:32.202Z,10.00
2022-10-25T15:44:07.826Z,9.80
2022-10-25T15:46:35.688Z,10.70
2022-10-25T15:49:09.487Z,10.80
2022-10-25T15:51:42.934Z,10.70
2022-10-25T15:54:21.691Z,10.70
2022-10-25T15:56:51.779Z,10.80
2022-10-25T15:59:19.532Z,10.80
2022-10-25T16:01:49.557Z,10.80
2022-10-25T16:04:18.638Z,10.90
2022-10-25T16:06:46.537Z,10.80
2022-10-25T16:09:13.903Z,10.80
2022-10-25T16:11:46.951Z,10.90
2022-10-25T16:14:33.914Z,10.80
2022-10-25T16:17:01.311Z,10.90
2022-10-25T16:19:31.671Z,10.80
2022-10-25T16:21:59.962Z,10.90
2022-10-25T16:24:29.471Z,10.80
2022-10-25T16:26:56.922Z,10.70
2022-10-25T16:29:25.558Z,10.80
2022-10-25T16:31:54.311Z,10.80
2022-10-25T16:34:22.057Z,10.80
2022-10-25T16:36:52.895Z,10.80
2022-10-25T16:39:20.409Z,13.30
2022-10-25T16:41:48.127Z,10.90
2022-10-25T16:44:20.090Z,10.50
2022-10-25T16:49:18.003Z,10.90
2022-10-25T16:51:45.847Z,10.90
2022-10-25T16:54:15.911Z,10.90
2022-10-25T16:56:43.585Z,10.90
2022-10-25T16:59:13.731Z,11.00
2022-10-25T17:01:44.546Z,11.00
2022-10-25T17:04:12.514Z,12.10
2022-10-25T17:06:41.692Z,11.00
2022-10-25T17:09:10.114Z,11.00
2022-10-25T17:11:37.610Z,11.00
2022-10-25T17:14:05.284Z,10.90
2022-10-25T17:16:36.020Z,11.40
2022-10-25T17:19:04.206Z,11.00
2022-10-25T17:21:33.393Z,11.00
2022-10-25T17:24:00.800Z,11.00
2022-10-25T17:26:28.374Z,11.00
2022-10-25T17:28:57.734Z,11.00
2022-10-25T17:31:32.711Z,11.00
2022-10-25T17:34:00.779Z,11.00
2022-10-25T17:38:56.823Z,12.40
2022-10-25T17:41:24.284Z,11.10
2022-10-25T17:43:54.550Z,11.10
2022-10-25T17:46:27.844Z,11.10
2022-10-25T17:48:56.670Z,11.10
2022-10-25T17:51:24.319Z,11.10
2022-10-25T17:53:55.310Z,11.30
2022-10-25T17:56:24.578Z,11.10
2022-10-25T17:58:53.057Z,11.10
2022-10-25T18:01:25.770Z,11.00
2022-10-25T18:03:54.880Z,11.10
2022-10-25T18:06:24.955Z,11.20
2022-10-25T18:08:53.914Z,10.90
2022-10-25T18:11:23.404Z,11.20
2022-10-25T18:13:58.996Z,11.20
2022-10-25T18:16:27.398Z,11.20
2022-10-25T18:18:57.601Z,11.20
2022-10-25T18:24:01.027Z,11.30
2022-10-25T18:26:28.733Z,11.30
2022-10-25T18:28:58.258Z,11.30
2022-10-25T18:31:28.270Z,11.40
2022-10-25T18:33:56.366Z,11.40
2022-10-25T18:36:23.861Z,11.40
2022-10-25T18:41:24.597Z,11.40
2022-10-25T18:46:19.884Z,11.50
2022-10-25T18:48:54.207Z,12.00
2022-10-25T18:51:23.633Z,11.50
2022-10-25T18:53:58.690Z,11.50
2022-10-25T18:56:26.487Z,11.50
2022-10-25T18:58:58.188Z,11.50
2022-10-25T19:01:28.088Z,11.50
2022-10-25T19:03:58.945Z,11.40
2022-10-25T19:06:26.763Z,11.40
2022-10-25T19:08:55.275Z,11.40
2022-10-25T19:11:23.036Z,11.40
2022-10-25T19:13:54.407Z,11.40
2022-10-25T19:16:22.801Z,11.40
2022-10-25T19:18:50.273Z,11.40
2022-10-25T19:21:18.601Z,9.80
2022-10-25T19:23:47.078Z,11.30
2022-10-25T19:26:20.579Z,11.30
2022-10-25T19:28:48.734Z,11.30
2022-10-25T19:31:18.163Z,11.30
2022-10-25T19:33:50.118Z,11.30
2022-10-25T19:36:17.998Z,11.20
2022-10-25T19:41:22.874Z,11.20
2022-10-25T19:43:50.883Z,11.30
2022-10-25T19:46:18.811Z,11.20
2022-10-25T19:48:46.521Z,11.20
2022-10-25T19:51:16.597Z,11.30
2022-10-25T19:53:44.538Z,11.30
2022-10-25T19:56:21.337Z,11.20
2022-10-25T19:58:49.345Z,11.20
2022-10-25T20:03:48.554Z,11.20
2022-10-25T20:06:24.877Z,11.20
2022-10-25T20:08:53.171Z,11.20
2022-10-25T20:11:21.206Z,9.60
2022-10-25T20:13:48.691Z,12.30
2022-10-25T20:16:16.239Z,11.20
2022-10-25T20:21:20.071Z,11.20
2022-10-25T20:23:50.834Z,11.20
2022-10-25T20:26:32.735Z,11.20
2022-10-25T20:31:32.019Z,11.20
2022-10-25T20:34:02.528Z,11.20
2022-10-25T20:36:30.459Z,11.20
2022-10-25T20:38:57.721Z,11.20
2022-10-25T20:41:27.038Z,11.20
2022-10-25T20:44:00.066Z,11.20
2022-10-25T20:46:28.551Z,11.20
2022-10-25T20:48:56.800Z,11.30
2022-10-25T20:51:24.543Z,11.30
2022-10-25T20:53:52.221Z,11.30
2022-10-25T20:56:21.208Z,11.30
2022-10-25T20:58:48.923Z,11.40
2022-10-25T21:03:44.677Z,11.40
2022-10-25T21:06:13.567Z,11.40
2022-10-25T21:08:41.041Z,11.40
2022-10-25T21:11:10.881Z,11.40
2022-10-25T21:13:38.465Z,11.40
2022-10-25T21:16:08.039Z,11.40
2022-10-25T21:18:36.225Z,12.90
2022-10-25T21:21:05.910Z,11.40
2022-10-25T21:26:06.190Z,11.40
2022-10-25T21:28:37.517Z,10.70
2022-10-25T21:33:33.661Z,11.40
2022-10-25T21:36:09.296Z,11.40
2022-10-25T21:38:37.112Z,11.40
2022-10-25T21:41:11.549Z,11.40
2022-10-25T21:43:43.203Z,11.40
2022-10-25T21:46:10.618Z,11.40
2022-10-25T21:48:38.058Z,12.90
2022-10-25T21:51:05.888Z,11.20
2022-10-25T21:56:10.576Z,11.50
2022-10-25T21:58:39.310Z,11.60
2022-10-25T22:01:18.370Z,11.50
2022-10-25T22:06:17.684Z,13.40
2022-10-25T22:08:45.635Z,11.50
2022-10-25T22:11:18.005Z,11.50
2022-10-25T22:13:46.077Z,11.60
2022-10-25T22:16:18.929Z,11.50
2022-10-25T22:18:58.890Z,11.60
2022-10-25T22:21:31.718Z,11.60
2022-10-25T22:24:02.279Z,11.50
2022-10-25T22:26:29.884Z,11.60
2022-10-25T22:28:58.910Z,11.60
2022-10-25T22:31:28.255Z,11.60
2022-10-25T22:33:57.975Z,11.60
2022-10-25T22:36:27.968Z,11.60
2022-10-25T22:38:55.531Z,11.60
2022-10-25T22:41:24.939Z,11.40
2022-10-25T22:43:52.383Z,12.20
2022-10-25T22:46:30.963Z,11.80
2022-10-25T22:48:59.472Z,11.50
2022-10-25T22:51:28.325Z,11.50
2022-10-25T22:56:28.707Z,11.50
2022-10-25T22:59:06.221Z,11.50
2022-10-25T23:01:37.882Z,11.50
2022-10-25T23:04:08.041Z,11.50
2022-10-25T23:06:36.953Z,11.50
2022-10-25T23:09:06.385Z,11.40
2022-10-25T23:11:35.816Z,11.40
2022-10-25T23:16:31.400Z,11.40
2022-10-25T23:18:58.857Z,11.40
2022-10-25T23:21:27.769Z,11.70
2022-10-25T23:23:56.481Z,11.30
2022-10-25T23:26:32.213Z,11.30
2022-10-25T23:29:01.048Z,11.30
2022-10-25T23:31:29.837Z,11.30
2022-10-25T23:33:59.651Z,11.30
2022-10-25T23:36:29.446Z,11.20
2022-10-25T23:38:58.102Z,11.20
2022-10-25T23:41:27.636Z,11.20
2022-10-25T23:43:57.830Z,11.20
2022-10-25T23:46:25.380Z,11.20
2022-10-25T23:51:20.608Z,10.40
2022-10-25T23:53:48.664Z,11.10
2022-10-25T23:56:16.200Z,11.20
2022-10-25T23:58:43.768Z,11.20
